首页
METAR-TAF:

METAR-TAF

机场 :

阿尔及尔胡阿里·布迈丁机场

阿爾及爾, 阿尔及利亚

纬度: 36-43N, 经度: 003-15E, 海拔: 25米

当前天气观测

该预报发布于15分钟前的08:30 UTC
风速3节,风向北转西北,在西转西北北转东北之间变化
温度 28°C
湿度 74%
气压 1016 hPa
能見度: 7000
散云层高于1300英尺
散云层高于20000英尺

METAR: DAAG 140830Z 34003KT 300V020 7000 SCT013 SCT200 28/23 Q1016

时间: 09:45 (08:45 UTC)

预报

该预报发布于3小时和45分钟前的05:00 UTC
预报有效从14日的 06点(UTC)到 15日的 06点(UTC)
风速2节,风向多变
能見度: 6000
少量云层高于1000英尺
短暂存在
从 14日的 06点(UTC)到 14日的 08点(UTC)
能見度: 5000
轻雾
几率 30% :
短暂存在
从 14日的 06点(UTC)到 14日的 12点(UTC)
少量云层高于2300英尺, 积雨云.
成为
从 14日的 09点(UTC)到 14日的 12点(UTC)
风速12节,风向北转东北
成为
从 14日的 18点(UTC)到 14日的 21点(UTC)
风速2节,风向多变
几率 30% :
短暂存在
从 14日的 22点(UTC)到 15日的 04点(UTC)
能見度: 5000
轻雾

TAF: DAAG 140500Z 1406/1506 VRB02KT 6000 FEW010 TEMPO 1406/1408 5000 BR PROB30 TEMPO 1406/1412 FEW023CB BECMG 1409/1412 02012KT BECMG 1418/1421 VRB02KT PROB30 TEMPO 1422/1504 5000 BR

超过4000个机场的气象观测和天气预报(METAR&TAF报告)。

可查询的气象台以黄色和红色小点在地图上表示。

将鼠标移到小点上方,可查看气象台名称。

然后点击查看天气观测和预报。

如需切换地图:点击带黑十字的绿色按钮放大地图;点击带横线的绿色按钮缩小地图;或者点击绿色箭头查看邻近地区的地图。


METAR-TAF: